Time;durP1;ratioP1;P1;durP2;ratioP2;P2;SDS_P1;SDS_P2;PMS_P1;PMS_P2;Temp;Humidity;BMP_temperature;BMP_pressure;BME280_temperature;BME280_humidity;BME280_pressure;Samples;Min_cycle;Max_cycle;Signal;HPM_P1;HPM_P2
2023/10/13 00:00:40;;;;;;;;;;;17.90;89.50;;;;;;5032148;28;19917;-82
2023/10/13 00:03:14;;;;;;;;;;;17.80;89.40;;;;;;5036742;28;20248;-81
2023/10/13 00:05:41;;;;;;;;;;;17.80;89.50;;;;;;5037216;28;20332;-82
2023/10/13 00:08:08;;;;;;;;;;;17.80;89.50;;;;;;5036218;28;19924;-82
2023/10/13 00:10:33;;;;;;;;;;;17.80;89.60;;;;;;5041274;28;20431;-82
2023/10/13 00:13:15;;;;;;;;;;;17.70;89.80;;;;;;5036027;28;19916;-83
2023/10/13 00:15:46;;;;;;;;;;;17.70;89.70;;;;;;5066405;28;19913;-83
2023/10/13 00:18:12;;;;;;;;;;;17.80;89.70;;;;;;5034069;28;19935;-83
2023/10/13 00:20:46;;;;;;;;;;;17.80;89.70;;;;;;5036588;28;19987;-83
2023/10/13 00:23:12;;;;;;;;;;;17.80;89.70;;;;;;5031941;28;19964;-83
2023/10/13 00:25:49;;;;;;;;;;;17.80;89.60;;;;;;5041207;28;20485;-83
2023/10/13 00:28:23;;;;;;;;;;;17.80;89.50;;;;;;5036900;28;19965;-82
2023/10/13 00:30:51;;;;;;;;;;;17.80;89.50;;;;;;5038654;28;19913;-83
2023/10/13 00:33:20;;;;;;;;;;;17.80;89.40;;;;;;5035994;28;19923;-83
2023/10/13 00:35:47;;;;;;;;;;;17.80;89.50;;;;;;5037700;28;19917;-82
2023/10/13 00:38:13;;;;;;;;;;;17.90;89.30;;;;;;5064661;28;19913;-82
2023/10/13 00:45:55;;;;;;;;;;;17.90;89.50;;;;;;5040400;28;19924;-82
2023/10/13 00:48:34;;;;;;;;;;;17.80;89.50;;;;;;5033250;28;19935;-82
2023/10/13 00:51:02;;;;;;;;;;;17.90;89.50;;;;;;5039070;28;19913;-83
2023/10/13 00:53:29;;;;;;;;;;;17.80;89.20;;;;;;5032908;28;19963;-82
2023/10/13 00:55:57;;;;;;;;;;;17.80;89.50;;;;;;5035606;28;19913;-82
2023/10/13 00:58:24;;;;;;;;;;;17.80;89.50;;;;;;5033349;28;19913;-83
2023/10/13 01:00:56;;;;;;;;;;;17.70;89.60;;;;;;5035962;28;19933;-83
2023/10/13 01:03:26;;;;;;;;;;;17.70;89.60;;;;;;5061745;28;19913;-83
2023/10/13 01:05:54;;;;;;;;;;;17.80;89.70;;;;;;5032079;28;19936;-83
2023/10/13 01:08:32;;;;;;;;;;;17.80;89.60;;;;;;5062241;28;20035;-83
2023/10/13 01:10:58;;;;;;;;;;;17.90;89.60;;;;;;5037588;28;20290;-83
2023/10/13 01:13:24;;;;;;;;;;;17.90;89.60;;;;;;5033570;28;19919;-83
2023/10/13 01:15:49;;;;;;;;;;;17.90;89.60;;;;;;5036509;28;19956;-83
2023/10/13 01:18:16;;;;;;;;;;;17.90;89.60;;;;;;5061186;28;19916;-83
2023/10/13 01:20:45;;;;;;;;;;;17.90;89.60;;;;;;5035453;28;19913;-83
2023/10/13 01:23:18;;;;;;;;;;;17.90;89.50;;;;;;5029774;28;19951;-83
2023/10/13 01:25:44;;;;;;;;;;;18.00;89.40;;;;;;5034389;28;20025;-82
2023/10/13 01:28:09;;;;;;;;;;;18.00;89.30;;;;;;5058104;28;19992;-83
2023/10/13 01:30:38;;;;;;;;;;;18.10;89.30;;;;;;5035164;28;20371;-83
2023/10/13 01:33:03;;;;;;;;;;;18.10;89.10;;;;;;5035204;28;19920;-83
2023/10/13 01:35:36;;;;;;;;;;;18.10;89.20;;;;;;5038848;28;19992;-83
2023/10/13 01:38:02;;;;;;;;;;;18.10;89.10;;;;;;5039010;28;20005;-83
2023/10/13 01:40:33;;;;;;;;;;;18.10;88.90;;;;;;5032482;28;19921;-83
2023/10/13 01:42:58;;;;;;;;;;;18.10;88.90;;;;;;5034004;28;19913;-83
2023/10/13 01:45:28;;;;;;;;;;;18.10;89.10;;;;;;5036137;28;19982;-83
2023/10/13 01:47:57;;;;;;;;;;;18.10;89.30;;;;;;5035261;28;19989;-83
2023/10/13 01:50:29;;;;;;;;;;;18.10;89.20;;;;;;5038241;28;20278;-84
2023/10/13 01:53:17;;;;;;;;;;;18.10;89.10;;;;;;5034545;28;19917;-84
2023/10/13 01:55:43;;;;;;;;;;;18.10;89.10;;;;;;5061765;28;20012;-83
2023/10/13 01:58:14;;;;;;;;;;;18.10;89.30;;;;;;5038951;28;19960;-83
2023/10/13 02:00:41;;;;;;;;;;;18.10;89.10;;;;;;5036207;28;19916;-83
2023/10/13 02:03:16;;;;;;;;;;;18.10;89.30;;;;;;5034060;28;19912;-83
2023/10/13 02:05:47;;;;;;;;;;;18.00;89.20;;;;;;5038009;28;19910;-84
2023/10/13 02:08:23;;;;;;;;;;;18.10;89.40;;;;;;5036452;28;19917;-83
2023/10/13 02:10:52;;;;;;;;;;;18.10;89.30;;;;;;5039996;28;20460;-83
2023/10/13 02:13:18;;;;;;;;;;;18.10;89.40;;;;;;5029445;28;20409;-83
2023/10/13 02:15:44;;;;;;;;;;;18.10;89.20;;;;;;5034274;28;19913;-83
2023/10/13 02:18:11;;;;;;;;;;;18.10;89.30;;;;;;5032466;28;19963;-83
2023/10/13 02:20:43;;;;;;;;;;;18.10;89.80;;;;;;5037348;28;19913;-82
2023/10/13 02:23:12;;;;;;;;;;;18.10;89.50;;;;;;5040991;28;19919;-83
2023/10/13 02:25:45;;;;;;;;;;;18.00;89.70;;;;;;5036355;28;19959;-83
2023/10/13 02:28:14;;;;;;;;;;;18.00;89.70;;;;;;5037248;28;20367;-83
2023/10/13 02:30:44;;;;;;;;;;;18.00;90.10;;;;;;5037851;28;19913;-83
2023/10/13 02:33:11;;;;;;;;;;;18.00;90.00;;;;;;5035999;28;20351;-83
2023/10/13 02:35:41;;;;;;;;;;;18.10;89.70;;;;;;5037152;28;19957;-83
2023/10/13 02:38:12;;;;;;;;;;;18.10;89.80;;;;;;5037986;28;19936;-82
2023/10/13 02:40:38;;;;;;;;;;;18.00;89.80;;;;;;5037364;28;19963;-83
2023/10/13 02:43:07;;;;;;;;;;;18.10;89.90;;;;;;5037458;28;20012;-83
2023/10/13 02:45:36;;;;;;;;;;;18.10;90.00;;;;;;5041348;28;20025;-83
2023/10/13 02:48:17;;;;;;;;;;;18.00;90.00;;;;;;5035131;28;19932;-83
2023/10/13 02:50:45;;;;;;;;;;;18.00;90.20;;;;;;5036432;28;19913;-83
2023/10/13 02:53:13;;;;;;;;;;;18.10;90.00;;;;;;5037036;28;19909;-83
2023/10/13 02:55:52;;;;;;;;;;;18.10;89.90;;;;;;5042250;28;20016;-83
2023/10/13 02:58:18;;;;;;;;;;;18.00;90.00;;;;;;5035823;28;19917;-83
2023/10/13 03:00:44;;;;;;;;;;;18.10;89.80;;;;;;5037258;28;19913;-83
2023/10/13 03:03:10;;;;;;;;;;;18.10;90.10;;;;;;5036051;28;19913;-83
2023/10/13 03:05:38;;;;;;;;;;;18.00;89.80;;;;;;5038534;28;19963;-83
2023/10/13 03:08:04;;;;;;;;;;;18.10;89.90;;;;;;5037109;28;19919;-83
2023/10/13 03:10:30;;;;;;;;;;;18.10;89.90;;;;;;5040585;28;19984;-83
2023/10/13 03:12:55;;;;;;;;;;;18.10;90.00;;;;;;5039978;28;19966;-83
2023/10/13 03:15:28;;;;;;;;;;;18.00;90.10;;;;;;5037808;28;20348;-83
2023/10/13 03:17:54;;;;;;;;;;;18.00;90.20;;;;;;5036645;28;19913;-82
2023/10/13 03:20:24;;;;;;;;;;;18.10;89.90;;;;;;5069737;28;20181;-82
2023/10/13 03:22:52;;;;;;;;;;;18.10;89.80;;;;;;5035586;28;20417;-82
2023/10/13 03:25:28;;;;;;;;;;;18.00;90.00;;;;;;5036938;28;19917;-81
2023/10/13 03:30:21;;;;;;;;;;;18.00;90.10;;;;;;5037069;28;19921;-82
2023/10/13 03:32:53;;;;;;;;;;;18.00;90.30;;;;;;5039718;28;19913;-82
2023/10/13 03:35:25;;;;;;;;;;;18.00;90.20;;;;;;5038279;28;19913;-82
2023/10/13 03:37:51;;;;;;;;;;;17.90;90.30;;;;;;5042819;28;20286;-81
2023/10/13 03:42:57;;;;;;;;;;;17.90;90.60;;;;;;5036893;28;19928;-81
2023/10/13 03:45:24;;;;;;;;;;;17.80;90.70;;;;;;5038517;28;19921;-81
2023/10/13 03:47:51;;;;;;;;;;;17.80;90.60;;;;;;5038527;28;19916;-82
2023/10/13 03:50:29;;;;;;;;;;;17.90;90.70;;;;;;5040027;28;19975;-82
2023/10/13 03:52:57;;;;;;;;;;;17.90;90.90;;;;;;5040162;28;19919;-83
2023/10/13 03:55:26;;;;;;;;;;;17.80;90.80;;;;;;5068243;28;19923;-83
2023/10/13 03:57:53;;;;;;;;;;;17.90;90.90;;;;;;5042091;28;19909;-82
2023/10/13 04:00:29;;;;;;;;;;;17.90;91.10;;;;;;5037765;28;19959;-81
2023/10/13 04:06:00;;;;;;;;;;;17.80;91.00;;;;;;5034603;28;19920;-83
2023/10/13 04:27:18;;;;;;;;;;;17.70;91.70;;;;;;5037117;28;19918;-82
2023/10/13 04:29:46;;;;;;;;;;;17.60;91.80;;;;;;5029155;28;19917;-82
2023/10/13 04:32:14;;;;;;;;;;;17.70;92.00;;;;;;5036588;28;19920;-82
2023/10/13 04:34:45;;;;;;;;;;;17.70;91.80;;;;;;5034837;28;19913;-83
2023/10/13 04:37:29;;;;;;;;;;;17.70;91.90;;;;;;5038343;28;19916;-83
2023/10/13 04:40:09;;;;;;;;;;;17.60;91.90;;;;;;5037011;28;19921;-83
2023/10/13 04:42:50;;;;;;;;;;;17.70;91.60;;;;;;5036178;28;20457;-82
2023/10/13 04:47:58;;;;;;;;;;;17.60;91.70;;;;;;5037330;28;19909;-82
2023/10/13 04:50:41;;;;;;;;;;;17.60;91.80;;;;;;5037160;28;20382;-83
2023/10/13 04:53:27;;;;;;;;;;;17.70;91.70;;;;;;5035322;28;19983;-82
2023/10/13 04:56:07;;;;;;;;;;;17.70;91.40;;;;;;5035993;28;19959;-88
2023/10/13 05:04:51;;;;;;;;;;;;;;;;;;;;;
2023/10/13 05:48:52;;;;;;;;;;;17.90;92.20;;;;;;5036744;28;20408;-85
2023/10/13 05:51:32;;;;;;;;;;;18.00;91.90;;;;;;5035129;28;19935;-83
2023/10/13 06:29:53;;;;;;;;;;;18.10;92.50;;;;;;5032261;28;19959;-82
2023/10/13 06:32:19;;;;;;;;;;;18.00;92.70;;;;;;5034806;28;19920;-82
2023/10/13 06:34:45;;;;;;;;;;;18.10;92.70;;;;;;5037071;28;19918;-89
2023/10/13 06:37:30;;;;;;;;;;;18.10;92.60;;;;;;5035120;28;19921;-88
2023/10/13 06:40:05;;;;;;;;;;;18.10;92.60;;;;;;5035826;28;19913;-89
2023/10/13 06:42:34;;;;;;;;;;;18.10;92.60;;;;;;5030645;28;20367;-88
2023/10/13 06:45:08;;;;;;;;;;;18.00;92.60;;;;;;5066547;28;19921;-88
2023/10/13 06:47:48;;;;;;;;;;;18.10;92.50;;;;;;5032587;28;19920;-91
2023/10/13 06:50:51;;;;;;;;;;;;;;;;;;;;;
2023/10/13 06:53:46;;;;;;;;;;;18.10;92.60;;;;;;5043902;28;20357;-90
2023/10/13 06:56:16;;;;;;;;;;;18.10;92.60;;;;;;5036296;28;19917;-87
2023/10/13 06:58:44;;;;;;;;;;;18.10;92.60;;;;;;5032582;28;19947;-86
2023/10/13 07:01:14;;;;;;;;;;;18.20;92.40;;;;;;5036523;28;20525;-86
2023/10/13 07:03:43;;;;;;;;;;;18.10;92.60;;;;;;5036257;28;19967;-87
2023/10/13 07:06:17;;;;;;;;;;;18.20;92.60;;;;;;5028193;28;19914;-87
2023/10/13 07:08:46;;;;;;;;;;;18.20;92.50;;;;;;5035006;28;19913;-88
2023/10/13 07:11:19;;;;;;;;;;;18.20;92.50;;;;;;5034509;28;19967;-87
2023/10/13 07:13:49;;;;;;;;;;;18.20;92.70;;;;;;5036591;28;19913;-84
2023/10/13 07:16:15;;;;;;;;;;;18.30;92.60;;;;;;5038774;28;20310;-83
2023/10/13 07:18:52;;;;;;;;;;;18.30;92.50;;;;;;5038409;28;19913;-84
2023/10/13 07:21:30;;;;;;;;;;;18.40;92.50;;;;;;5035334;28;19921;-84
2023/10/13 07:24:17;;;;;;;;;;;18.30;92.20;;;;;;5040545;28;19920;-83
2023/10/13 07:26:57;;;;;;;;;;;18.40;92.50;;;;;;5031781;28;20405;-86
2023/10/13 07:29:24;;;;;;;;;;;18.50;92.40;;;;;;5034240;28;19917;-87
2023/10/13 07:31:50;;;;;;;;;;;18.50;92.20;;;;;;5034794;28;19953;-86
2023/10/13 07:34:31;;;;;;;;;;;18.50;92.50;;;;;;5042358;28;19983;-87
2023/10/13 07:37:00;;;;;;;;;;;18.60;92.30;;;;;;5033476;28;20279;-88
2023/10/13 07:39:33;;;;;;;;;;;18.60;92.30;;;;;;5033592;28;19952;-88
2023/10/13 07:42:19;;;;;;;;;;;18.70;92.30;;;;;;5032751;28;19999;-86
2023/10/13 07:44:48;;;;;;;;;;;18.70;92.00;;;;;;5032230;28;19952;-82
2023/10/13 07:47:18;;;;;;;;;;;18.80;92.10;;;;;;5038695;28;19913;-87
2023/10/13 07:49:43;;;;;;;;;;;18.80;91.70;;;;;;5033610;28;19921;-84
2023/10/13 07:54:55;;;;;;;;;;;18.80;91.60;;;;;;5031257;28;19930;-80
2023/10/13 07:57:29;;;;;;;;;;;18.80;91.60;;;;;;5035665;28;19984;-83
2023/10/13 08:00:08;;;;;;;;;;;18.80;91.70;;;;;;5041570;28;19982;-84
2023/10/13 08:02:49;;;;;;;;;;;18.80;91.90;;;;;;5038787;28;19963;-83
2023/10/13 08:05:25;;;;;;;;;;;19.00;91.60;;;;;;5038738;28;19940;-83
2023/10/13 08:07:55;;;;;;;;;;;19.00;91.30;;;;;;5036399;28;19920;-82
2023/10/13 08:10:29;;;;;;;;;;;19.00;91.40;;;;;;5033348;28;19960;-82
2023/10/13 08:12:56;;;;;;;;;;;18.90;91.10;;;;;;5037172;28;19913;-83
2023/10/13 08:15:31;;;;;;;;;;;18.90;91.20;;;;;;5042138;28;19920;-82
2023/10/13 08:17:58;;;;;;;;;;;18.90;91.40;;;;;;5046828;28;19897;-82
2023/10/13 08:20:26;;;;;;;;;;;18.80;91.10;;;;;;5036213;28;19917;-82
2023/10/13 08:23:13;;;;;;;;;;;18.90;91.10;;;;;;5031224;28;19971;-82
2023/10/13 08:31:26;;;;;;;;;;;19.00;90.80;;;;;;5034665;28;20015;-81
2023/10/13 08:34:05;;;;;;;;;;;19.00;90.90;;;;;;5032456;28;19919;-81
2023/10/13 08:36:31;;;;;;;;;;;19.10;90.70;;;;;;5027326;28;19940;-83
2023/10/13 08:38:57;;;;;;;;;;;19.20;90.40;;;;;;5031141;28;19952;-82
2023/10/13 08:43:53;;;;;;;;;;;19.30;90.10;;;;;;5031895;28;19913;-79
2023/10/13 08:46:28;;;;;;;;;;;19.30;89.30;;;;;;5032006;28;19927;-80
2023/10/13 08:49:15;;;;;;;;;;;19.30;88.80;;;;;;5028077;28;19988;-80
2023/10/13 08:51:44;;;;;;;;;;;19.50;88.90;;;;;;5033324;28;19913;-80
2023/10/13 08:54:19;;;;;;;;;;;19.40;88.60;;;;;;5024773;28;20410;-84
2023/10/13 08:56:57;;;;;;;;;;;19.60;88.40;;;;;;5033121;28;19919;-85
2023/10/13 08:59:33;;;;;;;;;;;19.60;88.50;;;;;;5032271;28;19914;-85
2023/10/13 09:02:15;;;;;;;;;;;19.60;87.30;;;;;;5032164;28;19917;-88
2023/10/13 09:04:44;;;;;;;;;;;19.70;87.20;;;;;;5032169;28;19967;-86
2023/10/13 09:07:15;;;;;;;;;;;19.80;86.60;;;;;;5026463;28;19924;-87
2023/10/13 09:12:17;;;;;;;;;;;20.10;85.90;;;;;;5031210;28;19928;-85
2023/10/13 09:14:44;;;;;;;;;;;20.00;85.70;;;;;;5028609;28;19913;-87
2023/10/13 09:17:11;;;;;;;;;;;20.00;85.20;;;;;;5032600;28;19924;-87
2023/10/13 09:19:49;;;;;;;;;;;20.00;85.30;;;;;;5030706;28;19913;-86
2023/10/13 09:22:27;;;;;;;;;;;20.00;85.00;;;;;;5025388;28;19959;-88
2023/10/13 09:24:58;;;;;;;;;;;20.10;84.90;;;;;;5029622;28;19913;-87
2023/10/13 09:27:27;;;;;;;;;;;20.20;84.50;;;;;;5031659;28;20320;-84
2023/10/13 09:29:57;;;;;;;;;;;20.30;84.00;;;;;;5031110;28;20362;-85
2023/10/13 09:32:22;;;;;;;;;;;20.40;84.10;;;;;;5030381;28;19917;-85
2023/10/13 09:34:50;;;;;;;;;;;20.50;83.70;;;;;;5028824;28;19932;-86
2023/10/13 09:37:20;;;;;;;;;;;20.50;83.00;;;;;;5026916;28;19917;-86
2023/10/13 09:39:48;;;;;;;;;;;20.60;82.50;;;;;;5031153;28;20011;-84
2023/10/13 09:42:16;;;;;;;;;;;20.70;82.10;;;;;;5063432;28;19921;-84
2023/10/13 09:44:49;;;;;;;;;;;20.80;81.10;;;;;;5032199;28;20290;-84
2023/10/13 09:47:19;;;;;;;;;;;20.80;80.70;;;;;;5031780;28;20389;-84
2023/10/13 09:49:45;;;;;;;;;;;20.90;81.70;;;;;;5030860;28;19920;-84
2023/10/13 09:52:19;;;;;;;;;;;20.90;80.90;;;;;;5027027;28;19914;-90
2023/10/13 09:54:59;;;;;;;;;;;20.90;80.80;;;;;;5023087;28;19919;-87
2023/10/13 09:57:28;;;;;;;;;;;21.00;79.40;;;;;;5025439;28;19967;-88
2023/10/13 10:00:07;;;;;;;;;;;21.00;79.10;;;;;;5029909;28;19967;-88
2023/10/13 10:02:34;;;;;;;;;;;21.10;78.40;;;;;;5024378;28;19944;-84
2023/10/13 10:05:21;;;;;;;;;;;21.10;78.10;;;;;;5028219;28;20004;-85
2023/10/13 10:07:53;;;;;;;;;;;21.30;77.10;;;;;;5025446;28;19921;-85
2023/10/13 10:10:21;;;;;;;;;;;21.30;76.70;;;;;;5029740;28;19913;-88
2023/10/13 10:12:52;;;;;;;;;;;21.40;75.70;;;;;;5029008;28;19967;-88
2023/10/13 10:15:34;;;;;;;;;;;21.50;75.10;;;;;;5029249;28;19913;-88
2023/10/13 10:18:00;;;;;;;;;;;21.50;74.80;;;;;;5028968;28;19913;-88
2023/10/13 10:20:41;;;;;;;;;;;21.60;74.70;;;;;;5030388;28;19921;-87
2023/10/13 10:23:21;;;;;;;;;;;21.70;74.00;;;;;;5029449;28;19983;-86
2023/10/13 10:25:51;;;;;;;;;;;21.80;73.60;;;;;;5021005;28;19989;-88
2023/10/13 10:28:20;;;;;;;;;;;21.80;73.90;;;;;;5031536;28;19917;-90
2023/10/13 10:30:46;;;;;;;;;;;21.80;72.60;;;;;;5032369;28;19917;-88
2023/10/13 10:33:21;;;;;;;;;;;22.00;73.10;;;;;;5037977;28;19967;-86
2023/10/13 10:35:47;;;;;;;;;;;22.00;74.30;;;;;;5036947;28;19935;-89
2023/10/13 10:38:23;;;;;;;;;;;22.10;73.50;;;;;;5028387;28;20334;-90
2023/10/13 10:40:59;;;;;;;;;;;22.00;72.00;;;;;;5060254;28;19963;-88
2023/10/13 10:43:26;;;;;;;;;;;22.10;71.80;;;;;;5039224;28;19924;-88
2023/10/13 10:45:52;;;;;;;;;;;22.00;72.50;;;;;;5032659;28;19964;-87
2023/10/13 10:48:18;;;;;;;;;;;22.00;72.60;;;;;;5039730;28;19916;-87
2023/10/13 10:51:06;;;;;;;;;;;;;;;;;;;;;
2023/10/13 10:53:43;;;;;;;;;;;22.20;71.10;;;;;;5037671;28;19923;-89
2023/10/13 10:56:20;;;;;;;;;;;22.30;70.40;;;;;;5050334;28;19908;-88
2023/10/13 10:58:46;;;;;;;;;;;22.40;70.20;;;;;;5033361;28;20016;-88
2023/10/13 11:01:19;;;;;;;;;;;22.50;69.80;;;;;;5064508;28;20030;-88
2023/10/13 11:04:08;;;;;;;;;;;22.50;70.40;;;;;;5032510;28;20286;-88
2023/10/13 11:06:45;;;;;;;;;;;22.50;70.20;;;;;;5036365;28;20337;-86
2023/10/13 11:11:57;;;;;;;;;;;22.50;70.20;;;;;;5034816;28;19924;-88
2023/10/13 11:14:23;;;;;;;;;;;22.50;70.60;;;;;;5033929;28;19917;-88
2023/10/13 11:16:53;;;;;;;;;;;22.40;71.00;;;;;;5034955;28;19920;-88
2023/10/13 11:19:25;;;;;;;;;;;22.30;70.90;;;;;;5031512;28;19917;-89
2023/10/13 11:21:54;;;;;;;;;;;22.40;71.50;;;;;;5026085;28;20282;-88
2023/10/13 11:24:21;;;;;;;;;;;22.50;70.10;;;;;;5026312;28;19932;-88
2023/10/13 11:26:50;;;;;;;;;;;22.60;71.00;;;;;;5029839;28;20291;-88
2023/10/13 11:29:21;;;;;;;;;;;22.70;70.60;;;;;;5037508;28;19924;-88
2023/10/13 11:31:58;;;;;;;;;;;22.80;70.20;;;;;;5062678;28;19980;-88
2023/10/13 11:34:24;;;;;;;;;;;23.00;69.90;;;;;;5025681;28;19917;-87
2023/10/13 11:36:50;;;;;;;;;;;23.00;69.70;;;;;;5028036;28;19920;-88
2023/10/13 11:39:24;;;;;;;;;;;23.00;69.20;;;;;;5062144;28;19955;-88
2023/10/13 11:41:53;;;;;;;;;;;23.00;69.30;;;;;;5032285;28;19917;-88
2023/10/13 11:51:45;;;;;;;;;;;22.80;70.00;;;;;;5040208;28;19944;-89
2023/10/13 11:54:11;;;;;;;;;;;22.80;70.80;;;;;;5031516;28;20416;-90
2023/10/13 11:56:38;;;;;;;;;;;22.80;70.30;;;;;;5024286;28;19919;-91
2023/10/13 11:59:05;;;;;;;;;;;22.90;69.60;;;;;;5029280;28;19913;-88
2023/10/13 12:04:41;;;;;;;;;;;22.90;69.40;;;;;;5040893;28;19968;-90
2023/10/13 12:10:15;;;;;;;;;;;23.00;69.20;;;;;;5045455;28;20297;-89
2023/10/13 12:12:42;;;;;;;;;;;23.10;69.40;;;;;;5040190;28;19913;-89
2023/10/13 12:15:36;;;;;;;;;;;23.20;68.70;;;;;;5033795;28;19955;-90
2023/10/13 12:18:03;;;;;;;;;;;23.30;68.40;;;;;;5030755;28;19917;-89
2023/10/13 12:20:35;;;;;;;;;;;23.30;68.50;;;;;;5043186;28;19920;-89
2023/10/13 12:23:15;;;;;;;;;;;23.40;68.00;;;;;;5037057;28;19917;-90
2023/10/13 12:26:06;;;;;;;;;;;23.50;67.60;;;;;;5031972;28;19913;-89
2023/10/13 12:28:41;;;;;;;;;;;23.50;67.80;;;;;;5038904;28;20011;-89
2023/10/13 12:31:15;;;;;;;;;;;23.50;67.30;;;;;;5027153;28;19956;-90
2023/10/13 12:33:51;;;;;;;;;;;23.50;67.70;;;;;;5047532;28;19971;-88
2023/10/13 12:50:43;;;;;;;;;;;23.60;66.40;;;;;;5032919;28;20386;-88
2023/10/13 12:53:16;;;;;;;;;;;23.60;66.20;;;;;;5031640;28;20011;-89
2023/10/13 12:55:41;;;;;;;;;;;23.60;66.90;;;;;;5045369;22;19947;-83
2023/10/13 12:58:06;;;;;;;;;;;23.50;66.70;;;;;;5049147;28;20327;-82
2023/10/13 13:00:33;;;;;;;;;;;23.50;66.60;;;;;;5050157;28;20646;-83
2023/10/13 13:02:58;;;;;;;;;;;23.50;65.90;;;;;;5051445;28;20443;-83
2023/10/13 13:05:28;;;;;;;;;;;23.50;65.60;;;;;;5034663;28;19913;-83
2023/10/13 13:07:54;;;;;;;;;;;23.50;65.30;;;;;;5031532;28;19914;-83
2023/10/13 13:10:21;;;;;;;;;;;23.50;65.10;;;;;;5032484;28;20028;-83
2023/10/13 13:12:46;;;;;;;;;;;23.60;65.10;;;;;;5027055;28;20503;-86
2023/10/13 13:15:12;;;;;;;;;;;23.50;64.50;;;;;;5028298;28;19913;-81
2023/10/13 13:17:38;;;;;;;;;;;23.60;64.50;;;;;;5021064;28;19913;-81
2023/10/13 13:20:11;;;;;;;;;;;23.60;64.40;;;;;;5027597;28;19924;-81
2023/10/13 13:22:39;;;;;;;;;;;23.60;63.60;;;;;;5030887;28;19921;-81
2023/10/13 13:25:08;;;;;;;;;;;23.50;64.50;;;;;;5030744;28;22193;-82
2023/10/13 13:27:34;;;;;;;;;;;23.50;64.40;;;;;;5031669;28;19979;-82
2023/10/13 13:30:00;;;;;;;;;;;23.50;64.10;;;;;;5035967;28;19913;-82
2023/10/13 13:32:28;;;;;;;;;;;23.50;64.70;;;;;;5032356;28;19963;-82
2023/10/13 13:35:13;;;;;;;;;;;23.50;64.50;;;;;;5028097;28;19913;-82
2023/10/13 13:37:39;;;;;;;;;;;23.50;63.60;;;;;;5027798;28;19913;-81
2023/10/13 13:40:15;;;;;;;;;;;23.50;64.20;;;;;;5027302;28;19914;-81
2023/10/13 13:42:42;;;;;;;;;;;23.50;64.70;;;;;;5042954;28;19918;-81
2023/10/13 13:45:12;;;;;;;;;;;23.40;63.90;;;;;;5044304;28;19927;-81
2023/10/13 13:47:37;;;;;;;;;;;23.30;63.80;;;;;;5035712;28;19919;-81
2023/10/13 13:50:14;;;;;;;;;;;23.30;63.70;;;;;;5033055;28;20285;-82
2023/10/13 13:52:45;;;;;;;;;;;23.40;64.20;;;;;;5028599;28;19921;-81
2023/10/13 13:55:17;;;;;;;;;;;23.50;63.10;;;;;;5031667;28;19937;-81
2023/10/13 13:57:43;;;;;;;;;;;23.60;62.00;;;;;;5032795;28;19920;-82
2023/10/13 14:00:10;;;;;;;;;;;23.60;62.20;;;;;;5031216;28;19913;-82
2023/10/13 14:02:46;;;;;;;;;;;23.60;61.40;;;;;;5030734;28;20390;-82
2023/10/13 14:05:15;;;;;;;;;;;23.60;61.40;;;;;;5031433;28;19913;-82
2023/10/13 14:07:42;;;;;;;;;;;23.60;61.60;;;;;;5033055;28;19916;-82
2023/10/13 14:10:15;;;;;;;;;;;23.60;61.10;;;;;;5034148;28;20331;-83
2023/10/13 14:12:41;;;;;;;;;;;23.50;61.50;;;;;;5033123;28;20453;-82
2023/10/13 14:15:19;;;;;;;;;;;23.60;60.70;;;;;;5025760;28;19959;-83
2023/10/13 14:17:49;;;;;;;;;;;23.50;60.50;;;;;;5030364;28;19920;-83
2023/10/13 14:20:20;;;;;;;;;;;23.50;60.90;;;;;;5035338;28;20388;-82
2023/10/13 14:22:48;;;;;;;;;;;23.60;60.30;;;;;;5035719;28;19920;-83
2023/10/13 14:25:14;;;;;;;;;;;23.50;60.80;;;;;;5038748;28;20268;-82
2023/10/13 14:27:41;;;;;;;;;;;23.50;60.10;;;;;;5038802;28;19909;-82
2023/10/13 14:30:06;;;;;;;;;;;23.50;60.30;;;;;;5029103;28;19913;-82
2023/10/13 14:32:32;;;;;;;;;;;23.50;60.20;;;;;;5034873;28;19968;-83
2023/10/13 14:34:58;;;;;;;;;;;23.40;60.70;;;;;;5030566;28;20482;-83
2023/10/13 14:37:28;;;;;;;;;;;23.40;60.50;;;;;;5038791;28;19981;-83
2023/10/13 14:39:59;;;;;;;;;;;23.40;59.90;;;;;;5039400;28;19928;-83
2023/10/13 14:42:28;;;;;;;;;;;23.40;61.00;;;;;;5037442;28;19917;-82
2023/10/13 14:44:57;;;;;;;;;;;23.40;59.80;;;;;;5058151;28;19913;-82
2023/10/13 14:47:24;;;;;;;;;;;23.40;59.90;;;;;;5056118;28;19928;-81
2023/10/13 14:49:54;;;;;;;;;;;23.40;59.80;;;;;;5039645;28;20012;-81
2023/10/13 14:52:20;;;;;;;;;;;23.40;60.00;;;;;;5034122;28;19920;-83
2023/10/13 14:54:46;;;;;;;;;;;23.30;59.80;;;;;;5032523;28;20386;-81
2023/10/13 14:57:11;;;;;;;;;;;23.30;59.70;;;;;;5035777;28;19917;-82
2023/10/13 14:59:38;;;;;;;;;;;23.20;60.10;;;;;;5035751;28;20015;-82
2023/10/13 15:02:04;;;;;;;;;;;23.20;59.80;;;;;;5035262;28;19921;-82
2023/10/13 15:04:32;;;;;;;;;;;23.10;60.10;;;;;;5029589;28;19927;-84
2023/10/13 15:06:58;;;;;;;;;;;23.10;60.00;;;;;;5033026;28;19913;-82
2023/10/13 15:09:24;;;;;;;;;;;23.00;59.60;;;;;;5035544;28;19955;-82
2023/10/13 15:11:53;;;;;;;;;;;23.00;59.90;;;;;;5034753;28;19913;-82
2023/10/13 15:14:24;;;;;;;;;;;23.00;59.70;;;;;;5054547;22;19917;-81
2023/10/13 15:16:52;;;;;;;;;;;23.00;60.00;;;;;;5013228;28;19923;-82
2023/10/13 15:19:17;;;;;;;;;;;22.90;60.10;;;;;;5018328;28;20003;-82
2023/10/13 15:21:49;;;;;;;;;;;22.90;60.20;;;;;;5034626;28;20439;-82
2023/10/13 15:24:14;;;;;;;;;;;22.80;60.00;;;;;;5033630;28;19913;-82
2023/10/13 15:26:44;;;;;;;;;;;22.90;59.80;;;;;;5031292;28;19921;-82
2023/10/13 15:29:12;;;;;;;;;;;22.80;60.20;;;;;;5022948;28;20011;-82
2023/10/13 15:31:40;;;;;;;;;;;22.80;60.20;;;;;;5044418;28;20011;-82
2023/10/13 15:34:12;;;;;;;;;;;22.80;59.60;;;;;;5013383;28;19913;-81
2023/10/13 15:36:42;;;;;;;;;;;22.80;59.70;;;;;;5034505;28;19914;-83
2023/10/13 15:39:10;;;;;;;;;;;22.80;59.70;;;;;;5031614;28;19913;-83
2023/10/13 15:41:37;;;;;;;;;;;22.80;59.30;;;;;;5042516;28;19932;-82
2023/10/13 15:44:06;;;;;;;;;;;22.80;59.00;;;;;;5024412;28;19913;-82
2023/10/13 15:46:31;;;;;;;;;;;22.80;59.40;;;;;;5026745;28;19917;-83
2023/10/13 15:48:57;;;;;;;;;;;22.80;58.70;;;;;;5036984;28;20011;-82
2023/10/13 15:51:22;;;;;;;;;;;22.90;58.60;;;;;;5030874;28;20379;-83
2023/10/13 15:53:59;;;;;;;;;;;22.80;59.20;;;;;;5022916;28;19953;-83
2023/10/13 15:56:25;;;;;;;;;;;22.70;59.00;;;;;;5012123;28;19920;-83
2023/10/13 15:58:53;;;;;;;;;;;22.70;59.00;;;;;;5014860;28;19917;-81
2023/10/13 16:01:23;;;;;;;;;;;22.60;59.30;;;;;;5032000;28;19971;-82
2023/10/13 16:03:52;;;;;;;;;;;22.60;58.90;;;;;;5019282;28;20016;-82
2023/10/13 16:06:21;;;;;;;;;;;22.60;59.10;;;;;;5017374;28;19959;-82
2023/10/13 16:08:51;;;;;;;;;;;22.70;58.90;;;;;;5017583;28;19914;-83
2023/10/13 16:11:32;;;;;;;;;;;22.70;59.00;;;;;;5020644;28;19913;-82
2023/10/13 16:14:10;;;;;;;;;;;22.80;58.80;;;;;;5009992;28;19921;-82
2023/10/13 16:19:40;;;;;;;;;;;22.60;59.00;;;;;;5020467;28;19925;-82
2023/10/13 16:22:09;;;;;;;;;;;22.60;59.20;;;;;;5020218;28;20276;-83
2023/10/13 16:24:35;;;;;;;;;;;22.60;58.30;;;;;;5023356;28;19924;-83
2023/10/13 16:27:04;;;;;;;;;;;22.70;58.60;;;;;;5042287;28;19910;-83
2023/10/13 16:29:31;;;;;;;;;;;22.70;58.40;;;;;;5018271;28;19960;-84
2023/10/13 16:31:57;;;;;;;;;;;22.60;58.80;;;;;;5018526;28;20375;-83
2023/10/13 16:34:25;;;;;;;;;;;22.60;58.90;;;;;;5030204;28;19917;-81
2023/10/13 16:36:55;;;;;;;;;;;22.60;59.50;;;;;;5022056;28;20379;-82
2023/10/13 16:39:22;;;;;;;;;;;22.50;59.40;;;;;;5019341;28;20312;-82
2023/10/13 16:41:50;;;;;;;;;;;22.50;59.30;;;;;;5014298;28;19917;-82
2023/10/13 16:44:15;;;;;;;;;;;22.50;59.30;;;;;;5022042;28;20286;-82
2023/10/13 16:46:41;;;;;;;;;;;22.50;59.50;;;;;;5019562;28;19917;-82
2023/10/13 16:49:07;;;;;;;;;;;22.50;59.20;;;;;;5018934;28;19913;-82
2023/10/13 16:51:32;;;;;;;;;;;22.40;59.30;;;;;;5042102;28;19921;-82
2023/10/13 16:53:58;;;;;;;;;;;22.50;59.20;;;;;;5034276;28;19917;-82
2023/10/13 16:56:24;;;;;;;;;;;22.50;59.60;;;;;;5037190;28;20028;-82
2023/10/13 16:58:50;;;;;;;;;;;22.40;60.40;;;;;;5044065;28;20365;-82
2023/10/13 17:01:17;;;;;;;;;;;22.30;60.70;;;;;;5008360;28;19969;-82
2023/10/13 17:03:46;;;;;;;;;;;22.30;62.30;;;;;;5035704;28;19920;-82
2023/10/13 17:06:12;;;;;;;;;;;22.10;63.20;;;;;;5016155;28;20294;-82
2023/10/13 17:08:38;;;;;;;;;;;22.10;63.60;;;;;;5050238;28;19914;-80
2023/10/13 17:11:07;;;;;;;;;;;22.00;64.70;;;;;;5029974;28;19921;-82
2023/10/13 17:13:33;;;;;;;;;;;21.80;64.30;;;;;;5037512;28;19952;-82
2023/10/13 17:15:59;;;;;;;;;;;21.80;63.20;;;;;;5022291;28;19917;-81
2023/10/13 17:18:27;;;;;;;;;;;21.90;63.90;;;;;;5018069;28;19913;-82
2023/10/13 17:20:53;;;;;;;;;;;21.90;63.90;;;;;;5019586;28;20722;-82
2023/10/13 17:23:19;;;;;;;;;;;21.90;64.30;;;;;;5015465;28;19922;-82
2023/10/13 17:26:02;;;;;;;;;;;21.80;65.60;;;;;;5018266;28;19910;-82